Flight Briefing for CPX315

Departure Arrival
Kansas City International Airport (KMCI)
Click to view FAA NOTAMS
Los Angeles International Airport (KLAX)
Click to view FAA NOTAMS
Departure Time Arrival Time
N/A N/A
Aircraft Distance
B767-300BDSF 1184nm
Departure METAR Arrival METAR
KMCI 212253Z 15014KT 10SM SCT023 BKN031 18/15 A2942 RMK AO2 SLP959 T01830150 KLAX 212253Z 25021G30KT 10SM FEW025 FEW060 SCT250 18/09 A2982 RMK AO2 PK WND 25030/2246 SLPNO T01830094
Suggested Route
WL5 SLN KD45W ALS TBC JASSE Q90 DNERO ANJLL4


View recent IFR Routes data
Notes
METROAIR CARGO SUPPORT

Charts and Procedures

Charts for KMCI
No chart available
Charts for KLAX
No chart available

Windy.com Weather Map